Aérodrome :
LOGIN :

S'inscrire | Disclaimer

   EN    FR    IT 

 










Légende :    VFR   VFR Marginal   IFR   IFR Intensif   IFR Très Intensif
Visi : 
Plafond : 
>= 8 km
>= 3000ft
5 à 8 km
1000 à 3000 ft
1500m à 5 km
500 à 1000 ft
800 à 1500m
200 à 500 ft
< 800m
< 200 ft
Symboles :   Orages  Brouillard  Fortes neiges  Fortes précipitations  Vent > 20 kt
SIGMETs :   Divers  Orages  Givrage  Turbulence  Onde Orograph.  Cendres Volcan.






- Altitude de l'aérodrome : -15 ft
- Code IATA : RTM


EHRD - Rotterdam Zestienhoven

DERNIER METAR :
  • 091925Z AUTO 19005KT 2700 BR NCD M01/M01 Q1007 BECMG 1200 BCFG

METARs EXPIRÉS :
  • 090455Z AUTO 10004KT 050V140 3100 BR OVC002 00/00 Q1006 NOSIG
  • 091855Z AUTO 21005KT 2100 BR BKN001 M01/M01 Q1006 BECMG 1200 BCFG
  • 091825Z AUTO 18007KT 2800 BR SCT002 SCT004 M00/M00 Q1006 BECMG 1500 BCFG
  • 091755Z AUTO 19005KT 160V220 3200 BR NCD M00/M00 Q1006 BECMG 1500 BCFG
  • 091725Z AUTO 20003KT 3200 BR NCD M00/M00 Q1006 BECMG 1500 BCFG
  • 091655Z AUTO 19003KT 4400 BR NCD M00/M00 Q1006 BECMG 1500 BCFG

TAF TAF EHRD
Valide du 09 à 18h jusqu'au 11 à 00h UTC


091712Z 0918/1024 18005KT 1500 BCFG FEW002
BECMG 0918/0921 0600 FG BKN001
PROB30
TEMPO 0919/1011 0300 FZFG VV000
BECMG 1012/1015 19010KT 4000 BR BKN006
PROB30
TEMPO 1015/1024 2000 -SHRAGSSN BKN003 FEW018CB



MET'MAP, la Météo Aéronautique d'un coup d'oeil ! - Copyright ORBIFLY Décembre 2007 - Disclaimer

ORBIFLY MET'MAP TEAM :

Programmation & Développement : Alexandra Zaïnal
Sur une idée originale de : Baudouin d'Aumeries
Soutien technique & logistique : Manuel Goepfert
Assistance : Marc-Olivier Méhu




SOURCES & CREDITS :

   NOAA